Date,TemperatureHighF,TemperatureAvgF,TemperatureLowF,DewpointHighF,DewpointAvgF,DewpointLowF,HumidityHigh,HumidityAvg,HumidityLow,PressureMaxIn,PressureMinIn,WindSpeedMaxMPH,WindSpeedAvgMPH,GustSpeedMaxMPH,PrecipitationSumIn
2013-1-1,62,62,62,41,41,41,46,46,46,29.64,29.64,0,0,0,0.00
2013-1-2,62,62,62,41,41,41,46,46,46,29.64,29.64,0,0,0,0.00
2013-1-3,62,62,62,41,41,41,46,46,46,29.64,29.64,0,0,0,0.00
2013-1-4,62,62,62,41,41,41,46,46,46,29.64,29.64,0,0,0,0.00
2013-1-5,62,62,62,41,41,41,46,46,46,29.64,29.64,0,0,0,0.00
2013-1-6,62,62,62,41,41,41,46,46,46,29.64,29.64,0,0,0,0.00
2013-1-7,62,62,62,41,41,41,46,46,46,29.64,29.64,0,0,0,0.00
2013-1-8,62,62,62,41,41,41,46,46,46,29.64,29.64,0,0,0,0.00
2013-1-9,62,62,62,41,41,41,46,46,46,29.64,29.64,0,0,0,0.00
2013-8-31,76,75,75,73,72,71,90,88,87,29.92,29.90,5,3,5,0.00
2013-9-2,87,81,73,73,69,64,91,70,48,29.93,29.81,13,5,13,0.02
2013-9-3,80,72,61,71,60,52,99,70,40,30.09,29.84,20,7,20,0.00
2013-9-4,80,66,52,60,54,45,97,72,33,30.22,30.09,16,5,16,0.00
2013-9-5,78,66,55,63,56,48,98,73,37,30.26,30.12,21,7,21,0.00
2013-9-6,74,60,48,55,48,40,97,70,31,30.40,30.24,12,4,12,0.00
2013-9-7,79,63,48,63,54,47,97,76,42,30.26,30.04,12,3,12,0.00
2013-9-8,82,70,60,66,61,54,98,76,53,30.17,29.98,15,5,15,0.06
2013-9-9,75,66,57,66,55,42,86,68,43,30.32,30.17,17,6,17,0.00
2013-9-10,89,77,66,72,69,65,99,77,51,30.27,30.15,16,7,16,0.00
2013-9-11,90,80,69,75,71,68,99,77,51,30.25,30.08,13,4,16,0.00
2013-9-12,88,76,67,72,67,60,99,77,45,30.10,29.83,21,6,21,0.00
2013-9-13,74,66,56,65,55,46,98,70,39,30.08,29.84,25,10,25,0.00
2013-9-14,66,55,43,49,45,42,97,74,43,30.29,30.07,18,6,18,0.00
2013-9-15,75,59,41,58,50,40,97,74,44,30.35,30.16,15,5,15,0.00
2013-9-16,71,62,52,60,56,51,98,83,54,30.35,30.12,20,6,20,0.12
2013-9-17,69,56,43,53,44,35,97,70,32,30.55,30.35,13,4,13,0.00
2013-9-18,69,56,41,51,46,40,97,72,43,30.44,30.28,12,5,12,0.00
2013-9-19,76,62,48,60,53,46,97,77,48,30.30,30.17,12,4,12,0.00
2013-9-20,78,66,56,62,59,55,98,79,53,30.19,30.04,15,6,15,0.00
2013-9-21,68,64,60,66,62,59,99,92,77,30.05,28.88,24,11,24,0.56
2013-9-22,70,60,48,59,53,44,98,80,44,30.00,29.75,20,6,20,0.00
2013-9-23,64,54,44,51,46,40,97,77,45,30.12,29.99,17,6,17,0.00
2013-9-24,71,53,39,53,45,38,97,79,38,30.16,29.96,13,4,13,0.00
2013-9-25,75,56,40,55,46,39,97,76,30,30.03,29.89,13,4,13,0.00
2013-9-26,74,56,44,56,49,43,97,81,42,30.10,29.96,12,3,12,0.00
2013-9-27,70,58,47,58,54,46,98,87,61,30.24,30.10,10,3,10,0.00
2013-9-28,67,60,50,58,54,49,98,83,56,30.34,30.23,12,4,12,0.00
2013-9-29,72,56,42,59,49,41,98,81,39,30.25,30.06,13,3,13,0.00
2013-9-30,75,60,46,58,52,45,98,78,41,30.11,29.98,12,3,12,0.00
2013-10-1,79,64,50,62,56,49,98,79,45,30.09,29.97,16,4,16,0.00
2013-10-2,82,67,55,62,58,54,98,76,42,30.10,29.99,17,5,17,0.00
2013-10-3,82,68,54,65,60,53,98,80,48,30.14,30.02,10,3,10,0.00
2013-10-4,84,70,59,66,63,58,98,81,47,30.10,30.00,12,4,12,0.00
2013-10-5,85,72,60,66,63,59,99,76,44,30.10,29.99,16,4,16,0.00
2013-10-6,86,75,64,68,64,58,99,71,40,30.01,29.88,25,9,25,0.00
2013-10-7,73,64,51,69,58,45,99,84,59,30.08,29.74,26,11,26,0.55
2013-10-8,69,55,42,51,45,41,97,72,38,30.32,30.08,17,5,17,0.00
2013-10-9,61,52,43,51,46,37,97,80,43,30.35,30.26,13,4,13,0.01
2013-10-10,54,53,51,53,52,50,97,96,91,30.26,30.05,13,6,13,3.69
2013-10-11,62,56,52,61,56,51,98,97,97,30.05,29.99,15,6,15,0.85
2013-10-12,69,62,56,62,58,53,98,89,59,30.19,30.00,18,6,18,0.42
2013-10-13,59,57,56,58,57,55,98,98,95,30.33,30.18,10,4,10,0.51
2013-10-14,67,58,52,58,54,51,98,87,66,30.35,30.24,12,4,12,0.00
2013-10-15,70,58,47,59,52,46,98,83,43,30.25,30.08,10,4,10,0.00
2013-10-16,69,62,55,62,58,47,98,87,72,30.08,29.90,12,6,12,0.00
2013-10-17,73,64,58,65,60,46,98,88,65,29.91,29.69,26,7,26,0.10
2013-10-18,64,56,44,47,43,39,97,64,40,30.03,29.86,23,8,23,0.00
2013-10-19,62,51,39,57,48,38,98,88,65,30.02,29.75,21,6,21,0.03
2013-10-20,61,50,39,41,38,33,94,66,37,30.10,29.90,28,7,28,0.00
2013-10-21,66,52,34,46,40,32,97,69,35,30.16,29.92,20,8,20,0.00
2013-10-22,59,53,36,50,42,32,95,70,39,29.92,29.83,20,7,20,0.00
2013-10-23,50,43,34,39,37,33,96,81,55,29.92,29.69,17,6,17,0.01
2013-10-24,49,41,34,37,32,26,94,72,44,30.14,29.92,23,9,23,0.00
2013-10-25,52,39,26,36,30,24,95,73,44,30.31,30.14,24,8,24,0.00
2013-10-26,55,44,32,33,29,25,87,57,31,30.30,29.71,122,7,122,0.00
2013-10-27,57,47,35,38,33,29,89,60,35,30.12,29.92,20,7,20,0.00
2013-10-28,60,43,28,41,35,26,96,76,42,30.27,30.12,10,3,10,0.00
2013-10-29,62,46,31,43,38,30,96,77,44,30.40,30.26,7,3,7,0.00
2013-10-30,69,57,49,56,50,42,97,76,54,30.27,30.10,12,6,12,0.02
2013-10-31,67,61,56,61,58,55,98,90,71,30.14,29.69,24,11,24,0.05
2013-11-1,72,63,49,62,53,42,98,74,35,29.69,29.50,32,10,32,0.35
2013-11-2,62,52,43,50,44,38,97,76,50,29.89,29.65,24,8,24,0.00
2013-11-3,55,46,32,43,32,19,85,60,26,30.46,29.88,23,10,23,0.00
2013-11-4,45,34,23,30,25,21,94,71,40,30.63,30.45,12,3,12,0.00
2013-11-5,53,44,30,45,35,23,90,71,54,30.60,30.40,12,5,12,0.00
2013-11-6,67,57,47,52,48,43,93,74,55,30.41,29.98,23,12,23,0.00
2013-11-7,59,53,41,55,44,24,97,73,45,30.06,29.84,37,13,37,0.22
2013-11-8,48,41,29,32,26,22,86,56,38,30.30,30.05,29,10,29,0.00
2013-11-9,54,41,24,32,28,22,94,63,39,30.34,29.99,20,8,20,0.00
2013-11-10,57,50,42,37,30,26,56,47,35,30.22,29.95,36,14,36,0.00
2013-11-11,56,45,28,34,30,26,93,57,35,30.29,29.98,16,6,16,0.00
2013-11-12,51,37,28,39,22,13,80,55,39,30.40,29.96,26,14,26,0.00
2013-11-13,41,33,28,23,20,16,71,58,38,30.47,30.36,24,11,24,0.00
2013-11-14,57,40,25,23,18,13,70,43,18,30.37,30.19,12,4,12,0.00
2013-11-15,59,43,25,32,24,15,90,53,18,30.28,30.14,12,4,12,0.00
2013-11-16,56,49,40,50,45,29,97,87,46,30.29,30.18,17,7,17,0.01
2013-11-17,62,56,51,60,55,50,98,97,93,30.19,29.65,30,16,30,0.01
2013-11-18,63,58,48,60,35,24,97,45,24,29.94,29.64,32,15,32,0.12
2013-11-19,48,40,26,29,26,24,90,57,44,30.39,29.94,28,14,28,0.00
2013-11-20,45,34,21,28,21,12,94,65,31,30.57,30.38,14,5,14,0.00
2013-11-21,48,39,29,40,33,23,94,78,65,30.58,30.34,13,6,13,0.00
2013-11-22,58,51,45,51,46,39,97,85,71,30.34,30.01,28,5,28,0.00
2013-11-23,52,39,26,44,25,5,79,58,37,30.24,30.05,36,15,36,0.00
2013-11-24,28,23,19,13,8,4,64,51,40,30.52,30.24,34,17,36,0.00
2013-11-25,37,26,13,12,9,5,84,52,29,30.59,30.32,20,9,20,0.00
2013-11-26,34,32,31,32,26,12,95,79,43,30.33,29.86,16,7,16,0.75
2013-11-27,39,34,26,36,29,15,96,82,59,30.07,29.60,34,15,34,0.01
2013-11-28,35,29,23,24,16,12,84,59,44,30.48,30.07,29,11,29,0.00
2013-11-29,39,28,21,25,20,16,93,74,46,30.73,30.47,17,5,17,0.00
2013-11-30,34,27,16,22,19,14,93,73,54,30.75,30.38,14,6,14,0.00
2013-12-1,39,32,19,31,26,17,94,77,61,30.38,30.04,10,3,10,0.00
2013-12-2,44,38,34,36,33,30,96,83,68,30.04,29.89,6,2,6,0.00
2013-12-3,55,41,33,40,36,32,96,84,52,30.00,29.90,8,2,8,0.00
2013-12-4,56,46,31,49,41,30,97,85,65,30.10,29.98,13,5,13,0.00
2013-12-5,66,57,3,60,55,-2,97,92,73,30.06,29.91,15,9,15,0.01
2013-12-6,61,45,39,60,44,38,98,96,93,30.17,29.87,15,8,15,1.57
2013-12-7,39,35,26,38,30,-57,96,82,4,30.58,24.69,122,9,122,0.01
2013-12-8,27,24,21,26,22,18,94,91,81,30.58,30.31,10,4,10,0.35
2013-12-9,36,31,27,35,30,26,95,95,94,30.32,30.03,10,3,10,0.23
2013-12-10,35,30,20,33,26,14,95,86,66,30.21,29.99,22,6,22,0.45
2013-12-11,35,26,17,18,16,13,93,66,43,30.39,30.19,20,6,20,0.06
2013-12-12,29,24,19,23,9,0,79,53,31,30.41,30.19,23,10,23,0.00
2013-12-13,41,29,19,23,13,6,87,52,36,30.28,30.16,20,6,20,0.03
2013-12-14,36,32,27,34,29,21,95,89,67,30.29,29.81,15,6,15,0.28
2013-12-15,41,33,28,36,27,21,96,80,63,29.90,29.64,31,9,31,0.24
2013-12-16,35,30,26,26,22,17,87,73,62,30.15,29.90,26,8,26,0.00
2013-12-17,37,30,24,32,28,22,95,90,78,30.11,29.90,17,7,17,0.01
2013-12-18,36,29,22,26,21,18,94,73,56,30.19,29.98,22,7,22,0.00
2013-12-19,52,39,22,32,25,19,92,61,37,30.17,30.00,12,6,12,0.00
2013-12-20,54,47,39,36,32,28,73,56,46,30.04,29.92,13,6,13,0.00
2013-12-21,66,57,47,59,47,36,81,69,53,29.95,29.79,20,10,20,0.00
2013-12-22,68,63,59,64,60,55,98,88,76,29.94,29.71,27,11,27,0.17
2013-12-23,59,50,34,58,45,25,98,85,67,30.23,29.86,27,9,27,0.43
2013-12-24,37,29,20,29,18,5,95,63,43,30.46,30.18,31,11,31,0.00
2013-12-25,29,22,14,15,11,8,89,63,50,30.56,30.30,21,8,21,0.00
2013-12-26,44,31,24,26,19,14,82,63,39,30.30,30.15,23,9,23,0.00
2013-12-27,50,34,22,23,19,14,88,57,25,30.36,30.23,18,6,18,0.00
2013-12-28,58,45,30,29,24,20,73,44,28,30.27,30.04,16,6,16,0.00
2013-12-29,49,44,40,45,38,23,97,83,36,30.04,29.52,15,6,15,0.86
2013-12-30,46,37,24,42,30,20,91,76,63,30.15,29.76,26,9,26,0.00
2013-12-31,39,30,22,28,20,15,92,68,45,30.29,30.05,38,9,38,0.00
2014-1-1,46,33,21,29,23,16,93,69,42,30.34,30.07,20,7,20,0.00
2014-1-2,33,28,23,31,26,21,95,92,85,30.08,29.64,9,2,9,0.00